createdAt,value
2024-01-24T00:00:11.475Z,70.45
2024-01-24T00:02:38.535Z,72.88
2024-01-24T00:05:07.119Z,73.15
2024-01-24T00:07:34.139Z,73.65
2024-01-24T00:10:01.763Z,69.22
2024-01-24T00:12:28.911Z,68.38
2024-01-24T00:14:55.904Z,65.78
2024-01-24T00:17:22.953Z,54.88
2024-01-24T00:19:49.806Z,56.17
2024-01-24T00:22:16.817Z,56.03
2024-01-24T00:24:43.927Z,59.03
2024-01-24T00:27:12.639Z,61.92
2024-01-24T00:29:40.432Z,57.90
2024-01-24T00:32:07.556Z,55.40
2024-01-24T00:34:34.599Z,53.45
2024-01-24T00:37:01.741Z,53.42
2024-01-24T00:39:28.666Z,54.63
2024-01-24T00:41:59.631Z,54.28
2024-01-24T00:44:26.647Z,50.50
2024-01-24T00:46:53.715Z,48.35
2024-01-24T00:49:21.218Z,52.00
2024-01-24T00:51:48.277Z,50.97
2024-01-24T00:54:15.531Z,51.03
2024-01-24T00:56:42.518Z,52.15
2024-01-24T00:59:10.020Z,49.97
2024-01-24T01:01:37.181Z,50.30
2024-01-24T01:04:05.570Z,51.95
2024-01-24T01:06:32.681Z,52.08
2024-01-24T01:09:01.754Z,51.40
2024-01-24T01:11:29.058Z,53.58
2024-01-24T01:13:56.021Z,50.67
2024-01-24T01:16:23.131Z,52.10
2024-01-24T01:18:50.140Z,53.13
2024-01-24T01:21:17.201Z,51.88
2024-01-24T01:23:44.281Z,50.72
2024-01-24T01:26:11.180Z,52.83
2024-01-24T01:28:38.320Z,54.92
2024-01-24T01:31:30.438Z,53.95
2024-01-24T01:33:57.624Z,51.63
2024-01-24T01:36:24.703Z,50.78
2024-01-24T01:38:51.788Z,48.80
2024-01-24T01:41:18.805Z,47.55
2024-01-24T01:43:46.352Z,47.53
2024-01-24T01:46:21.551Z,46.80
2024-01-24T01:48:51.293Z,43.95
2024-01-24T01:51:19.833Z,45.33
2024-01-24T01:53:49.074Z,44.03
2024-01-24T01:56:19.437Z,46.22
2024-01-24T02:01:15.593Z,41.90
2024-01-24T02:03:48.018Z,42.67
2024-01-24T02:06:15.499Z,43.70
2024-01-24T02:08:44.683Z,47.20
2024-01-24T02:11:13.084Z,46.20
2024-01-24T02:13:39.978Z,47.03
2024-01-24T02:16:07.557Z,45.05
2024-01-24T02:18:34.616Z,41.70
2024-01-24T02:21:01.692Z,43.05
2024-01-24T02:23:28.726Z,43.92
2024-01-24T02:25:55.668Z,43.95
2024-01-24T02:28:22.635Z,40.88
2024-01-24T02:30:49.668Z,41.25
2024-01-24T02:33:16.985Z,39.30
2024-01-24T02:35:44.237Z,39.90
2024-01-24T02:38:11.303Z,41.33
2024-01-24T02:40:38.378Z,39.65
2024-01-24T02:43:05.764Z,40.22
2024-01-24T02:45:33.434Z,39.22
2024-01-24T02:48:00.598Z,42.70
2024-01-24T02:50:27.586Z,39.60
2024-01-24T02:52:54.519Z,38.63
2024-01-24T02:55:21.532Z,39.60
2024-01-24T02:57:48.851Z,36.92
2024-01-24T03:00:17.356Z,40.97
2024-01-24T03:02:44.338Z,39.38
2024-01-24T03:05:11.332Z,40.70
2024-01-24T03:07:38.579Z,39.50
2024-01-24T03:10:06.582Z,40.35
2024-01-24T03:12:34.294Z,39.15
2024-01-24T03:15:01.482Z,39.08
2024-01-24T03:17:28.505Z,39.38
2024-01-24T03:19:56.335Z,41.13
2024-01-24T03:22:26.526Z,41.00
2024-01-24T03:27:21.143Z,37.22
2024-01-24T03:29:48.200Z,40.30
2024-01-24T03:32:15.108Z,40.17
2024-01-24T03:34:42.210Z,39.83
2024-01-24T03:37:09.138Z,40.42
2024-01-24T03:39:37.517Z,39.15
2024-01-24T03:42:05.218Z,41.13
2024-01-24T03:44:32.331Z,38.97
2024-01-24T03:46:59.254Z,38.65
2024-01-24T03:49:26.435Z,36.58
2024-01-24T03:51:54.609Z,37.42
2024-01-24T03:54:22.003Z,38.08
2024-01-24T03:56:49.260Z,39.53
2024-01-24T03:59:16.569Z,40.65
2024-01-24T04:01:43.880Z,42.95
2024-01-24T04:04:10.952Z,41.63
2024-01-24T04:06:38.207Z,42.35
2024-01-24T04:09:05.487Z,41.38
2024-01-24T04:11:32.389Z,39.97
2024-01-24T04:13:59.467Z,40.72
2024-01-24T04:16:26.322Z,38.35
2024-01-24T04:18:55.067Z,39.40
2024-01-24T04:21:22.112Z,40.28
2024-01-24T04:23:49.060Z,39.28
2024-01-24T04:26:16.084Z,37.42
2024-01-24T04:28:43.113Z,38.67
2024-01-24T04:31:10.192Z,39.47
2024-01-24T04:33:37.435Z,37.58
2024-01-24T04:36:04.881Z,36.75
2024-01-24T04:38:31.776Z,38.05
2024-01-24T04:40:58.644Z,37.08
2024-01-24T04:43:25.693Z,38.30
2024-01-24T04:45:52.736Z,37.58
2024-01-24T04:48:19.851Z,37.00
2024-01-24T04:50:47.310Z,36.42
2024-01-24T04:53:14.374Z,34.35
2024-01-24T04:55:41.266Z,35.50
2024-01-24T04:58:08.433Z,36.63
2024-01-24T05:00:36.447Z,34.55
2024-01-24T05:03:03.685Z,35.35
2024-01-24T05:05:30.657Z,35.63
2024-01-24T05:07:57.719Z,37.20
2024-01-24T05:10:25.010Z,36.13
2024-01-24T05:12:52.258Z,36.83
2024-01-24T05:15:20.520Z,47.38
2024-01-24T05:17:47.779Z,37.72
2024-01-24T05:20:14.812Z,36.53
2024-01-24T05:22:42.037Z,38.55
2024-01-24T05:25:09.295Z,36.47
2024-01-24T05:27:36.380Z,36.00
2024-01-24T05:30:15.684Z,34.60
2024-01-24T05:32:47.720Z,35.60
2024-01-24T05:35:15.348Z,35.63
2024-01-24T05:37:42.341Z,36.22
2024-01-24T05:40:09.900Z,38.10
2024-01-24T05:42:36.956Z,40.97
2024-01-24T05:45:03.989Z,39.55
2024-01-24T05:47:31.025Z,39.13
2024-01-24T05:49:59.885Z,38.33
2024-01-24T05:52:27.140Z,38.13
2024-01-24T05:54:55.357Z,37.83
2024-01-24T05:57:23.451Z,36.55
2024-01-24T05:59:50.645Z,35.70
2024-01-24T06:02:17.824Z,41.10
2024-01-24T06:04:44.852Z,40.38
2024-01-24T06:07:15.331Z,38.88
2024-01-24T06:09:42.416Z,39.53
2024-01-24T06:12:09.699Z,39.17
2024-01-24T06:14:36.805Z,40.95
2024-01-24T06:17:04.443Z,41.85
2024-01-24T06:19:31.480Z,42.40
2024-01-24T06:21:58.450Z,38.65
2024-01-24T06:24:25.588Z,41.70
2024-01-24T06:26:52.500Z,43.17
2024-01-24T06:30:14.703Z,46.97
2024-01-24T06:32:08.173Z,38.13
2024-01-24T06:34:35.253Z,42.08
2024-01-24T06:37:02.289Z,41.60
2024-01-24T06:39:29.275Z,42.42
2024-01-24T06:41:57.682Z,43.17
2024-01-24T06:44:24.948Z,38.22
2024-01-24T06:46:52.000Z,39.08
2024-01-24T06:49:19.011Z,37.67
2024-01-24T06:51:47.198Z,38.38
2024-01-24T06:54:14.625Z,36.95
2024-01-24T06:56:41.719Z,38.85
2024-01-24T06:59:08.686Z,39.00
2024-01-24T07:01:35.848Z,41.85
2024-01-24T07:04:02.990Z,46.88
2024-01-24T07:06:30.113Z,49.50
2024-01-24T07:08:58.320Z,52.03
2024-01-24T07:11:25.675Z,51.50
2024-01-24T07:13:52.596Z,52.38
2024-01-24T07:16:21.080Z,54.50
2024-01-24T07:18:59.859Z,54.47
2024-01-24T07:21:31.637Z,62.92
2024-01-24T07:23:58.602Z,62.40
2024-01-24T07:26:25.625Z,64.38
2024-01-24T07:28:52.806Z,67.20
2024-01-24T07:31:19.772Z,67.47
2024-01-24T07:33:47.118Z,65.88
2024-01-24T07:36:14.130Z,70.82
2024-01-24T07:38:41.189Z,71.97
2024-01-24T07:41:09.066Z,74.05
2024-01-24T07:43:36.173Z,74.78
2024-01-24T07:46:03.452Z,72.75
2024-01-24T07:48:34.248Z,73.55
2024-01-24T07:51:01.563Z,72.45
2024-01-24T07:53:28.864Z,67.95
2024-01-24T07:56:03.515Z,70.43
2024-01-24T07:58:41.239Z,74.40
2024-01-24T08:01:11.185Z,68.25
2024-01-24T08:03:39.377Z,70.40
2024-01-24T08:06:06.773Z,72.32
2024-01-24T08:08:34.117Z,71.82
2024-01-24T08:11:02.029Z,71.03
2024-01-24T08:13:32.050Z,67.53
2024-01-24T08:15:59.290Z,61.95
2024-01-24T08:18:27.282Z,63.40
2024-01-24T08:20:56.827Z,68.40
2024-01-24T08:23:31.693Z,71.95
2024-01-24T08:26:05.524Z,65.70
2024-01-24T08:28:32.961Z,67.32
2024-01-24T08:31:00.096Z,67.85
2024-01-24T08:33:27.430Z,68.78
2024-01-24T08:35:54.530Z,59.70
2024-01-24T08:38:21.464Z,48.92
2024-01-24T08:40:48.581Z,51.55
2024-01-24T08:43:15.826Z,53.38
2024-01-24T08:45:51.319Z,49.28
2024-01-24T08:48:23.509Z,52.33
2024-01-24T08:50:50.679Z,52.38
2024-01-24T08:53:18.309Z,52.90
2024-01-24T08:55:45.665Z,49.58
2024-01-24T08:58:13.132Z,53.70
2024-01-24T09:00:41.077Z,51.13
2024-01-24T09:03:10.697Z,52.00
2024-01-24T09:05:43.212Z,49.97
2024-01-24T09:08:10.952Z,49.85
2024-01-24T09:10:38.240Z,42.05
2024-01-24T09:13:05.715Z,40.53
2024-01-24T09:15:33.418Z,44.75
2024-01-24T09:18:05.424Z,46.53
2024-01-24T09:20:32.601Z,44.03
2024-01-24T09:22:59.971Z,44.70
2024-01-24T09:25:30.510Z,45.35
2024-01-24T09:30:50.114Z,39.95
2024-01-24T09:36:01.498Z,35.85
2024-01-24T09:38:29.316Z,38.05
2024-01-24T09:41:00.171Z,38.83
2024-01-24T09:43:30.928Z,35.97
2024-01-24T09:45:59.020Z,36.53
2024-01-24T09:48:26.374Z,35.15
2024-01-24T09:50:54.373Z,34.95
2024-01-24T09:53:25.293Z,32.55
2024-01-24T09:55:54.984Z,31.75
2024-01-24T09:58:22.228Z,31.75
2024-01-24T10:00:52.967Z,31.88
2024-01-24T10:03:20.251Z,31.38
2024-01-24T10:05:50.678Z,32.30
2024-01-24T10:08:20.019Z,31.88
2024-01-24T10:10:47.376Z,33.55
2024-01-24T10:13:14.420Z,36.60
2024-01-24T10:15:41.652Z,37.45
2024-01-24T10:18:12.435Z,35.03
2024-01-24T10:20:42.599Z,29.33
2024-01-24T10:23:13.027Z,28.30
2024-01-24T10:25:43.263Z,28.42
2024-01-24T10:28:15.113Z,26.45
2024-01-24T10:30:42.832Z,26.83
2024-01-24T10:33:21.542Z,25.67
2024-01-24T10:35:55.195Z,27.83
2024-01-24T10:38:25.560Z,27.15
2024-01-24T10:43:24.548Z,28.80
2024-01-24T10:45:53.277Z,30.48
2024-01-24T10:48:21.461Z,32.60
2024-01-24T10:50:49.398Z,31.45
2024-01-24T10:53:20.184Z,31.23
2024-01-24T10:55:51.260Z,29.13
2024-01-24T10:58:19.737Z,29.45
2024-01-24T11:00:46.903Z,26.65
2024-01-24T11:03:14.441Z,28.48
2024-01-24T11:05:48.653Z,25.15
2024-01-24T11:08:35.934Z,26.67
2024-01-24T11:11:14.423Z,26.02
2024-01-24T11:13:44.190Z,26.77
2024-01-24T11:16:38.705Z,23.60
2024-01-24T11:19:24.099Z,25.73
2024-01-24T11:21:58.378Z,24.45
2024-01-24T11:24:47.785Z,24.88
2024-01-24T11:27:35.883Z,24.02
2024-01-24T11:30:13.147Z,23.60
2024-01-24T11:32:46.906Z,22.33
2024-01-24T11:35:42.088Z,18.92
2024-01-24T11:38:25.850Z,17.02
2024-01-24T11:40:58.407Z,16.85
2024-01-24T11:43:32.692Z,16.50
2024-01-24T11:46:07.516Z,16.10
2024-01-24T11:48:37.820Z,19.42
2024-01-24T11:53:43.290Z,20.73
2024-01-24T11:56:16.480Z,19.75
2024-01-24T11:58:43.754Z,18.20
2024-01-24T12:01:14.793Z,20.35
2024-01-24T12:03:49.651Z,19.55
2024-01-24T12:06:18.721Z,19.00
2024-01-24T12:08:49.967Z,20.25
2024-01-24T12:11:18.684Z,19.58
2024-01-24T12:13:46.477Z,19.98
2024-01-24T12:16:24.565Z,21.17
2024-01-24T12:18:52.051Z,21.15
2024-01-24T12:21:20.079Z,21.85
2024-01-24T12:23:49.353Z,19.08
2024-01-24T12:26:17.362Z,18.63
2024-01-24T12:28:46.453Z,17.92
2024-01-24T12:31:14.269Z,17.73
2024-01-24T12:33:41.810Z,16.73
2024-01-24T12:36:12.058Z,15.27
2024-01-24T12:41:06.497Z,15.75
2024-01-24T12:43:33.683Z,16.17
2024-01-24T12:46:09.155Z,14.40
2024-01-24T12:48:38.739Z,16.13
2024-01-24T12:51:07.420Z,15.48
2024-01-24T12:53:35.099Z,17.00
2024-01-24T12:56:02.674Z,15.73
2024-01-24T12:58:29.843Z,17.02
2024-01-24T13:00:57.152Z,17.15
2024-01-24T13:03:24.623Z,16.52
2024-01-24T13:05:54.002Z,17.30
2024-01-24T13:08:22.183Z,16.85
2024-01-24T13:10:50.146Z,18.40
2024-01-24T13:13:17.908Z,16.92
2024-01-24T13:15:45.602Z,16.75
2024-01-24T13:18:12.840Z,16.70
2024-01-24T13:20:41.525Z,17.48
2024-01-24T13:23:08.529Z,18.40
2024-01-24T13:25:35.850Z,18.30
2024-01-24T13:28:04.230Z,18.73
2024-01-24T13:30:32.783Z,19.50
2024-01-24T13:33:00.096Z,19.05
2024-01-24T13:35:27.225Z,19.65
2024-01-24T13:37:54.312Z,19.55
2024-01-24T13:40:21.343Z,19.48
2024-01-24T13:42:48.828Z,19.95
2024-01-24T13:45:16.169Z,20.15
2024-01-24T13:47:43.288Z,19.15
2024-01-24T13:50:11.481Z,19.10
2024-01-24T13:52:40.353Z,18.35
2024-01-24T13:55:09.920Z,18.13
2024-01-24T13:57:39.743Z,18.00
2024-01-24T14:00:13.090Z,17.20
2024-01-24T14:05:11.162Z,15.98
2024-01-24T14:07:40.413Z,15.80
2024-01-24T14:10:08.419Z,16.17
2024-01-24T14:12:35.803Z,15.85
2024-01-24T14:15:15.300Z,15.35
2024-01-24T14:17:50.832Z,15.98
2024-01-24T14:20:19.124Z,16.20
2024-01-24T14:22:46.184Z,15.73
2024-01-24T14:25:13.518Z,14.52
2024-01-24T14:27:42.240Z,15.50
2024-01-24T14:30:09.406Z,17.25
2024-01-24T14:32:39.917Z,16.52
2024-01-24T14:35:08.448Z,16.70
2024-01-24T14:37:36.216Z,18.17
2024-01-24T14:40:03.991Z,18.40
2024-01-24T14:42:31.277Z,18.30
2024-01-24T14:45:00.485Z,18.98
2024-01-24T14:47:28.028Z,20.73
2024-01-24T14:49:55.391Z,19.55
2024-01-24T14:52:22.401Z,20.65
2024-01-24T14:54:49.529Z,22.17
2024-01-24T14:57:16.907Z,21.52
2024-01-24T14:59:44.139Z,21.92
2024-01-24T15:02:11.014Z,21.33
2024-01-24T15:04:42.240Z,21.80
2024-01-24T15:07:09.341Z,19.95
2024-01-24T15:09:37.082Z,17.98
2024-01-24T15:12:05.775Z,20.67
2024-01-24T15:14:32.925Z,18.45
2024-01-24T15:17:00.275Z,17.67
2024-01-24T15:19:27.347Z,16.45
2024-01-24T15:21:55.422Z,17.40
2024-01-24T15:24:23.394Z,13.05
2024-01-24T15:26:50.859Z,13.02
2024-01-24T15:29:17.871Z,11.63
2024-01-24T15:31:44.873Z,12.60
2024-01-24T15:34:14.792Z,13.40
2024-01-24T15:36:43.051Z,12.45
2024-01-24T15:39:13.478Z,12.05
2024-01-24T15:44:09.877Z,10.63
2024-01-24T15:46:37.280Z,10.75
2024-01-24T15:49:04.697Z,11.07
2024-01-24T15:51:32.070Z,9.65
2024-01-24T15:53:59.173Z,10.48
2024-01-24T15:56:26.256Z,10.40
2024-01-24T15:58:53.409Z,10.90
2024-01-24T16:01:20.969Z,10.27
2024-01-24T16:03:48.126Z,9.50
2024-01-24T16:06:15.320Z,9.95
2024-01-24T16:08:42.293Z,10.25
2024-01-24T16:11:09.330Z,10.35
2024-01-24T16:13:36.264Z,10.27
2024-01-24T16:16:03.947Z,10.38
2024-01-24T16:18:31.049Z,10.45
2024-01-24T16:20:58.084Z,10.75
2024-01-24T16:23:25.094Z,10.57
2024-01-24T16:25:52.320Z,10.98
2024-01-24T16:28:19.366Z,10.38
2024-01-24T16:30:46.766Z,10.68
2024-01-24T16:33:15.084Z,10.93
2024-01-24T16:35:42.175Z,10.60
2024-01-24T16:38:09.723Z,11.20
2024-01-24T16:40:36.804Z,11.32
2024-01-24T16:43:05.270Z,10.73
2024-01-24T16:45:32.346Z,10.98
2024-01-24T16:47:59.397Z,11.65
2024-01-24T16:50:26.394Z,11.25
2024-01-24T16:52:53.484Z,11.63
2024-01-24T16:55:20.651Z,10.63
2024-01-24T16:57:47.773Z,10.63
2024-01-24T17:00:15.201Z,10.77
2024-01-24T17:02:46.750Z,10.45
2024-01-24T17:05:19.312Z,11.43
2024-01-24T17:07:46.410Z,11.25
2024-01-24T17:10:15.782Z,12.43
2024-01-24T17:12:42.990Z,11.87
2024-01-24T17:15:14.549Z,12.35
2024-01-24T17:17:42.156Z,11.65
2024-01-24T17:20:09.628Z,10.43
2024-01-24T17:22:36.966Z,10.45
2024-01-24T17:25:04.529Z,11.13
2024-01-24T17:27:32.771Z,11.30
2024-01-24T17:29:59.726Z,10.80
2024-01-24T17:32:26.813Z,11.20
2024-01-24T17:34:54.397Z,11.07
2024-01-24T17:37:21.957Z,10.75
2024-01-24T17:39:50.124Z,11.13
2024-01-24T17:42:18.524Z,10.90
2024-01-24T17:44:45.668Z,11.50
2024-01-24T17:47:13.148Z,11.55
2024-01-24T17:49:40.344Z,11.55
2024-01-24T17:52:08.073Z,11.55
2024-01-24T17:54:35.268Z,11.05
2024-01-24T17:57:03.190Z,11.30
2024-01-24T17:59:30.228Z,10.68
2024-01-24T18:01:57.812Z,10.82
2024-01-24T18:04:25.794Z,12.23
2024-01-24T18:06:53.340Z,12.10
2024-01-24T18:09:21.829Z,12.02
2024-01-24T18:11:49.100Z,11.75
2024-01-24T18:14:16.115Z,12.07
2024-01-24T18:16:43.278Z,11.98
2024-01-24T18:19:10.677Z,10.90
2024-01-24T18:21:37.675Z,12.77
2024-01-24T18:24:06.223Z,12.30
2024-01-24T18:26:33.403Z,12.07
2024-01-24T18:29:02.335Z,11.80
2024-01-24T18:31:29.350Z,10.48
2024-01-24T18:33:56.664Z,11.30
2024-01-24T18:36:24.162Z,11.30
2024-01-24T18:38:51.220Z,11.05
2024-01-24T18:41:19.160Z,11.32
2024-01-24T18:43:48.697Z,10.73
2024-01-24T18:46:20.375Z,10.85
2024-01-24T18:48:48.090Z,11.05
2024-01-24T18:51:17.784Z,11.75
2024-01-24T18:53:48.182Z,11.45
2024-01-24T18:56:16.710Z,12.20
2024-01-24T18:58:43.846Z,12.13
2024-01-24T19:01:11.534Z,12.20
2024-01-24T19:03:39.084Z,12.40
2024-01-24T19:06:06.804Z,11.70
2024-01-24T19:08:37.202Z,12.48
2024-01-24T19:11:05.290Z,11.63
2024-01-24T19:13:32.766Z,12.57
2024-01-24T19:16:00.313Z,13.40
2024-01-24T19:18:30.563Z,11.77
2024-01-24T19:20:58.036Z,11.68
2024-01-24T19:23:25.139Z,12.40
2024-01-24T19:25:52.634Z,12.88
2024-01-24T19:28:20.699Z,11.75
2024-01-24T19:30:50.043Z,12.55
2024-01-24T19:33:17.888Z,12.88
2024-01-24T19:35:45.045Z,11.00
2024-01-24T19:38:13.096Z,10.48
2024-01-24T19:40:40.200Z,10.75
2024-01-24T19:43:07.461Z,10.85
2024-01-24T19:45:34.656Z,10.63
2024-01-24T19:48:01.924Z,10.77
2024-01-24T19:50:29.448Z,10.55
2024-01-24T19:52:56.962Z,11.05
2024-01-24T19:55:25.193Z,12.60
2024-01-24T19:57:52.366Z,11.35
2024-01-24T20:00:22.829Z,10.20
2024-01-24T20:02:49.985Z,10.57
2024-01-24T20:05:17.927Z,11.40
2024-01-24T20:07:45.875Z,11.43
2024-01-24T20:10:13.359Z,11.88
2024-01-24T20:12:40.464Z,11.88
2024-01-24T20:15:10.391Z,13.00
2024-01-24T20:17:46.556Z,12.02
2024-01-24T20:20:15.808Z,12.65
2024-01-24T20:22:46.881Z,12.55
2024-01-24T20:25:14.264Z,12.73
2024-01-24T20:27:43.907Z,12.07
2024-01-24T20:30:11.857Z,11.98
2024-01-24T20:32:45.396Z,12.32
2024-01-24T20:35:20.708Z,12.65
2024-01-24T20:37:47.991Z,12.68
2024-01-24T20:40:15.117Z,11.98
2024-01-24T20:42:42.400Z,11.90
2024-01-24T20:45:09.879Z,12.23
2024-01-24T20:47:37.432Z,12.80
2024-01-24T20:50:05.556Z,11.93
2024-01-24T20:52:32.915Z,12.75
2024-01-24T20:55:00.584Z,11.68
2024-01-24T20:57:28.880Z,12.23
2024-01-24T20:59:57.555Z,11.27
2024-01-24T21:02:24.954Z,12.18
2024-01-24T21:04:53.121Z,12.30
2024-01-24T21:07:21.014Z,12.27
2024-01-24T21:09:48.191Z,12.48
2024-01-24T21:12:15.280Z,12.48
2024-01-24T21:14:42.711Z,12.77
2024-01-24T21:17:09.843Z,12.52
2024-01-24T21:19:38.251Z,12.80
2024-01-24T21:22:05.728Z,13.23
2024-01-24T21:24:32.947Z,13.02
2024-01-24T21:27:00.410Z,13.00
2024-01-24T21:29:29.989Z,13.38
2024-01-24T21:31:57.128Z,12.88
2024-01-24T21:34:24.423Z,12.45
2024-01-24T21:36:51.658Z,12.52
2024-01-24T21:39:18.825Z,13.27
2024-01-24T21:41:45.887Z,12.98
2024-01-24T21:44:12.842Z,13.18
2024-01-24T21:46:39.772Z,12.77
2024-01-24T21:49:07.111Z,13.48
2024-01-24T21:51:34.200Z,12.70
2024-01-24T21:54:02.363Z,12.43
2024-01-24T21:56:29.473Z,13.73
2024-01-24T21:58:56.778Z,15.20
2024-01-24T22:01:24.732Z,13.75
2024-01-24T22:03:52.476Z,14.52
2024-01-24T22:06:19.767Z,15.02
2024-01-24T22:08:47.059Z,13.20
2024-01-24T22:11:15.704Z,12.63
2024-01-24T22:13:43.096Z,13.63
2024-01-24T22:16:13.349Z,14.02
2024-01-24T22:18:44.794Z,12.05
2024-01-24T22:21:18.961Z,11.20
2024-01-24T22:23:46.349Z,13.75
2024-01-24T22:26:13.632Z,13.43
2024-01-24T22:28:41.117Z,14.50
2024-01-24T22:31:08.349Z,14.02
2024-01-24T22:33:36.464Z,13.02
2024-01-24T22:36:04.064Z,13.35
2024-01-24T22:38:31.604Z,13.27
2024-01-24T22:43:32.366Z,12.68
2024-01-24T22:45:59.444Z,14.80
2024-01-24T22:48:27.388Z,12.98
2024-01-24T22:50:54.494Z,14.02
2024-01-24T22:53:23.829Z,12.77
2024-01-24T22:55:51.330Z,13.10
2024-01-24T22:58:21.679Z,12.30
2024-01-24T23:00:49.698Z,13.32
2024-01-24T23:03:16.755Z,13.18
2024-01-24T23:05:43.782Z,12.23
2024-01-24T23:08:13.939Z,11.43
2024-01-24T23:10:44.391Z,12.63
2024-01-24T23:13:11.513Z,12.45
2024-01-24T23:15:38.564Z,13.10
2024-01-24T23:18:05.850Z,12.43
2024-01-24T23:20:32.856Z,13.50
2024-01-24T23:22:59.838Z,11.85
2024-01-24T23:25:27.115Z,13.20
2024-01-24T23:27:54.332Z,12.40
2024-01-24T23:30:21.331Z,13.18
2024-01-24T23:32:48.544Z,14.10
2024-01-24T23:35:15.820Z,12.40
2024-01-24T23:37:43.108Z,13.63
2024-01-24T23:40:10.790Z,13.80
2024-01-24T23:42:39.527Z,15.07
2024-01-24T23:45:07.163Z,15.73
2024-01-24T23:47:34.321Z,15.27
2024-01-24T23:50:01.645Z,15.73
2024-01-24T23:52:29.044Z,14.90
2024-01-24T23:54:56.195Z,15.50
2024-01-24T23:57:24.472Z,16.83
2024-01-24T23:59:51.841Z,17.25
